createdAt,value
2022-11-22T00:00:21.123Z,22.8400
2022-11-22T00:01:23.351Z,22.8400
2022-11-22T00:02:25.636Z,22.8300
2022-11-22T00:04:04.505Z,22.7700
2022-11-22T00:05:06.659Z,22.8100
2022-11-22T00:06:08.940Z,22.7900
2022-11-22T00:07:11.245Z,22.7800
2022-11-22T00:08:13.498Z,22.7800
2022-11-22T00:09:15.916Z,22.7700
2022-11-22T00:10:15.941Z,22.7700
2022-11-22T00:11:18.221Z,22.7700
2022-11-22T00:12:20.511Z,22.7600
2022-11-22T00:13:22.808Z,22.7400
2022-11-22T00:14:25.182Z,22.7600
2022-11-22T00:15:27.324Z,22.7200
2022-11-22T00:16:29.632Z,22.7100
2022-11-22T00:17:29.755Z,22.7200
2022-11-22T00:18:32.011Z,22.6700
2022-11-22T00:19:34.274Z,22.7100
2022-11-22T00:20:36.481Z,22.7200
2022-11-22T00:21:38.728Z,22.7200
2022-11-22T00:22:44.527Z,22.7500
2022-11-22T00:23:43.213Z,22.6900
2022-11-22T00:24:45.575Z,22.6800
2022-11-22T00:25:47.613Z,22.6700
2022-11-22T00:26:49.834Z,22.6700
2022-11-22T00:27:52.042Z,22.6600
2022-11-22T00:28:52.184Z,22.6600
2022-11-22T00:29:54.578Z,22.6800
2022-11-22T00:30:56.753Z,22.7000
2022-11-22T00:31:59.035Z,22.7000
2022-11-22T00:33:01.340Z,22.6700
2022-11-22T00:34:03.637Z,22.6800
2022-11-22T00:35:05.976Z,22.7100
2022-11-22T00:36:06.089Z,22.6800
2022-11-22T00:37:08.438Z,22.6500
2022-11-22T00:38:10.699Z,22.6700
2022-11-22T00:39:13.024Z,22.6700
2022-11-22T00:40:15.492Z,22.6800
2022-11-22T00:41:17.632Z,22.6700
2022-11-22T00:42:17.773Z,22.6400
2022-11-22T00:43:20.034Z,22.6000
2022-11-22T00:44:22.329Z,22.5900
2022-11-22T00:45:24.764Z,22.6400
2022-11-22T00:46:26.885Z,22.6500
2022-11-22T00:47:29.197Z,22.6300
2022-11-22T00:48:31.511Z,22.6300
2022-11-22T00:49:32.175Z,22.6300
2022-11-22T00:50:34.031Z,22.6300
2022-11-22T00:51:36.323Z,22.6200
2022-11-22T00:52:38.632Z,22.6000
2022-11-22T00:53:40.959Z,22.6300
2022-11-22T00:54:43.278Z,22.6400
2022-11-22T00:55:43.493Z,22.6500
2022-11-22T00:56:45.777Z,22.6300
2022-11-22T00:57:48.112Z,22.6100
2022-11-22T00:58:50.438Z,22.6100
2022-11-22T00:59:52.769Z,22.5900
2022-11-22T01:00:56.631Z,22.5800
2022-11-22T01:01:55.212Z,22.5700
2022-11-22T01:02:57.526Z,22.6000
2022-11-22T01:03:59.856Z,22.6000
2022-11-22T01:05:02.190Z,22.6200
2022-11-22T01:06:04.495Z,22.6400
2022-11-22T01:07:06.786Z,22.6600
2022-11-22T01:08:06.882Z,22.6200
2022-11-22T01:09:09.137Z,22.6100
2022-11-22T01:10:11.414Z,22.5700
2022-11-22T01:11:13.734Z,22.6000
2022-11-22T01:12:15.969Z,22.6500
2022-11-22T01:13:18.255Z,22.6300
2022-11-22T01:14:18.393Z,22.6200
2022-11-22T01:15:20.677Z,22.6400
2022-11-22T01:16:22.972Z,22.6100
2022-11-22T01:17:25.199Z,22.6400
2022-11-22T01:18:27.472Z,22.5800
2022-11-22T01:19:30.261Z,22.5900
2022-11-22T01:20:32.076Z,22.5900
2022-11-22T01:21:34.405Z,22.5800
2022-11-22T01:22:34.543Z,22.5800
2022-11-22T01:23:36.858Z,22.6000
2022-11-22T01:24:39.187Z,22.5700
2022-11-22T01:25:41.491Z,22.5500
2022-11-22T01:26:43.851Z,22.5800
2022-11-22T01:27:46.136Z,22.5600
2022-11-22T01:28:46.309Z,22.5500
2022-11-22T01:29:48.646Z,22.5200
2022-11-22T01:30:51.018Z,22.5100
2022-11-22T01:31:53.457Z,22.5100
2022-11-22T01:32:55.662Z,22.5300
2022-11-22T01:33:55.826Z,22.5500
2022-11-22T01:34:58.122Z,22.5400
2022-11-22T01:36:00.391Z,22.5600
2022-11-22T01:37:02.718Z,22.5500
2022-11-22T01:38:04.997Z,22.5000
2022-11-22T01:38:39.415Z,22.5000
2022-11-22T01:40:39.800Z,22.5400
2022-11-22T01:41:42.139Z,22.5200
2022-11-22T01:42:44.520Z,22.5500
2022-11-22T01:43:46.824Z,22.5900
2022-11-22T01:44:47.017Z,22.5700
2022-11-22T01:45:49.376Z,22.5700
2022-11-22T01:46:51.742Z,22.5700
2022-11-22T01:47:54.111Z,22.5900
2022-11-22T01:48:56.423Z,22.5700
2022-11-22T01:49:56.615Z,22.5800
2022-11-22T01:50:58.952Z,22.5500
2022-11-22T01:52:01.296Z,22.5500
2022-11-22T01:53:03.684Z,22.5400
2022-11-22T01:54:05.973Z,22.5500
2022-11-22T01:55:06.110Z,22.5600
2022-11-22T01:56:08.407Z,22.5200
2022-11-22T01:57:10.693Z,22.4800
2022-11-22T01:58:13.026Z,22.4700
2022-11-22T01:59:15.294Z,22.4800
2022-11-22T02:00:17.601Z,22.4900
2022-11-22T02:02:50.264Z,22.5100
2022-11-22T02:03:52.625Z,22.5000
2022-11-22T02:04:54.768Z,22.5200
2022-11-22T02:05:57.071Z,22.5100
2022-11-22T02:06:59.386Z,22.5300
2022-11-22T02:08:01.646Z,22.5100
2022-11-22T02:09:03.955Z,22.5000
2022-11-22T02:10:04.074Z,22.5000
2022-11-22T02:11:06.329Z,22.5000
2022-11-22T02:12:08.574Z,22.4600
2022-11-22T02:13:10.750Z,22.4800
2022-11-22T02:14:12.959Z,22.5100
2022-11-22T02:15:15.103Z,22.5100
2022-11-22T02:16:17.302Z,22.5000
2022-11-22T02:17:19.497Z,22.4700
2022-11-22T02:18:21.773Z,22.4900
2022-11-22T02:19:24.056Z,22.4300
2022-11-22T02:20:26.280Z,22.4700
2022-11-22T02:21:28.554Z,22.4600
2022-11-22T02:22:28.712Z,22.4600
2022-11-22T02:23:31.001Z,22.5000
2022-11-22T02:24:33.396Z,22.4900
2022-11-22T02:25:35.546Z,22.4800
2022-11-22T02:26:37.832Z,22.4600
2022-11-22T02:27:40.079Z,22.4500
2022-11-22T02:28:42.310Z,22.4500
2022-11-22T02:29:44.564Z,22.4600
2022-11-22T02:30:44.608Z,22.4400
2022-11-22T02:31:46.817Z,22.4500
2022-11-22T02:32:49.079Z,22.4500
2022-11-22T02:33:51.376Z,22.4700
2022-11-22T02:34:53.646Z,22.4500
2022-11-22T02:35:55.831Z,22.4500
2022-11-22T02:36:58.107Z,22.4500
2022-11-22T02:38:00.377Z,22.4400
2022-11-22T02:39:02.648Z,22.4600
2022-11-22T02:40:02.956Z,22.4500
2022-11-22T02:41:05.087Z,22.4400
2022-11-22T02:42:07.369Z,22.4500
2022-11-22T02:43:09.704Z,22.4500
2022-11-22T02:44:12.016Z,22.4300
2022-11-22T02:45:14.373Z,22.3800
2022-11-22T02:46:14.487Z,22.3400
2022-11-22T02:47:16.819Z,22.3600
2022-11-22T02:48:19.115Z,22.3800
2022-11-22T02:49:21.458Z,22.4400
2022-11-22T02:50:23.772Z,22.4300
2022-11-22T02:51:26.069Z,22.4100
2022-11-22T02:52:26.225Z,22.3900
2022-11-22T02:53:28.541Z,22.3800
2022-11-22T02:54:30.848Z,22.3700
2022-11-22T02:55:33.136Z,22.3800
2022-11-22T02:56:35.311Z,22.3900
2022-11-22T02:57:37.578Z,22.3800
2022-11-22T02:58:39.872Z,22.3500
2022-11-22T02:59:42.148Z,22.3900
2022-11-22T03:00:42.482Z,22.3900
2022-11-22T03:01:44.479Z,22.4000
2022-11-22T03:02:46.707Z,22.3800
2022-11-22T03:03:49.008Z,22.3600
2022-11-22T03:04:51.246Z,22.3800
2022-11-22T03:05:53.614Z,22.3500
2022-11-22T03:06:55.712Z,22.3300
2022-11-22T03:07:58.144Z,22.3600
2022-11-22T03:08:58.273Z,22.3500
2022-11-22T03:10:00.380Z,22.3600
2022-11-22T03:11:02.655Z,22.3600
2022-11-22T03:12:04.929Z,22.3600
2022-11-22T03:13:07.202Z,22.3600
2022-11-22T03:14:09.518Z,22.3300
2022-11-22T03:15:11.809Z,22.3100
2022-11-22T03:16:57.181Z,22.2600
2022-11-22T03:17:59.358Z,22.2800
2022-11-22T03:19:01.630Z,22.3100
2022-11-22T03:20:03.918Z,22.3400
2022-11-22T03:21:06.166Z,22.3500
2022-11-22T03:22:08.844Z,22.3100
2022-11-22T03:23:10.688Z,22.3200
2022-11-22T03:24:12.982Z,22.3100
2022-11-22T03:25:13.143Z,22.3100
2022-11-22T03:26:15.422Z,22.2800
2022-11-22T03:27:17.765Z,22.3000
2022-11-22T03:28:20.047Z,22.3200
2022-11-22T03:29:22.358Z,22.3200
2022-11-22T03:30:24.632Z,22.3400
2022-11-22T03:31:26.895Z,22.3300
2022-11-22T03:32:27.057Z,22.3000
2022-11-22T03:33:29.302Z,22.3000
2022-11-22T03:34:31.614Z,22.2900
2022-11-22T03:35:33.967Z,22.3000
2022-11-22T03:36:36.270Z,22.3000
2022-11-22T03:37:38.800Z,22.3000
2022-11-22T03:38:40.819Z,22.2900
2022-11-22T03:39:41.005Z,22.3000
2022-11-22T03:40:43.331Z,22.2700
2022-11-22T03:41:45.651Z,22.2500
2022-11-22T03:42:47.946Z,22.2700
2022-11-22T03:43:50.243Z,22.2800
2022-11-22T03:44:52.567Z,22.2600
2022-11-22T03:45:52.710Z,22.2800
2022-11-22T03:46:55.020Z,22.2800
2022-11-22T03:47:57.479Z,22.2200
2022-11-22T03:48:59.639Z,22.2400
2022-11-22T03:50:01.949Z,22.2300
2022-11-22T03:51:04.222Z,22.2100
2022-11-22T03:52:04.320Z,22.2300
2022-11-22T03:53:06.733Z,22.2100
2022-11-22T03:54:08.836Z,22.2100
2022-11-22T03:55:11.093Z,22.2500
2022-11-22T03:56:13.334Z,22.2700
2022-11-22T03:57:15.592Z,22.2800
2022-11-22T03:58:17.877Z,22.2800
2022-11-22T03:59:20.061Z,22.2100
2022-11-22T04:00:22.346Z,22.2100
2022-11-22T04:01:22.556Z,22.1900
2022-11-22T04:02:24.758Z,22.2300
2022-11-22T04:03:27.064Z,22.2300
2022-11-22T04:04:29.308Z,22.2500
2022-11-22T04:05:31.575Z,22.2400
2022-11-22T04:06:33.879Z,22.2300
2022-11-22T04:07:36.158Z,22.2600
2022-11-22T04:08:38.366Z,22.2800
2022-11-22T04:09:40.548Z,22.2600
2022-11-22T04:10:40.698Z,22.2400
2022-11-22T04:11:42.981Z,22.2300
2022-11-22T04:12:45.276Z,22.2400
2022-11-22T04:13:47.710Z,22.2100
2022-11-22T04:14:49.896Z,22.2000
2022-11-22T04:15:52.224Z,22.1800
2022-11-22T04:16:52.416Z,22.1900
2022-11-22T04:17:54.751Z,22.1800
2022-11-22T04:18:57.227Z,22.1100
2022-11-22T04:19:59.436Z,22.0500
2022-11-22T04:21:01.800Z,22.0200
2022-11-22T04:22:02.054Z,22.0700
2022-11-22T04:23:04.356Z,22.1000
2022-11-22T04:24:06.759Z,22.1000
2022-11-22T04:25:08.976Z,22.1100
2022-11-22T04:26:11.262Z,22.1200
2022-11-22T04:27:11.385Z,22.1400
2022-11-22T04:28:13.651Z,22.1900
2022-11-22T04:29:15.963Z,22.1900
2022-11-22T04:30:20.740Z,22.2000
2022-11-22T04:32:44.359Z,22.1000
2022-11-22T04:33:46.552Z,22.1500
2022-11-22T04:34:48.843Z,22.1500
2022-11-22T04:35:51.019Z,22.1800
2022-11-22T04:36:53.263Z,22.1700
2022-11-22T04:37:55.539Z,22.2100
2022-11-22T04:38:57.811Z,22.2100
2022-11-22T04:40:00.121Z,22.1800
2022-11-22T04:41:00.195Z,22.1600
2022-11-22T04:42:02.466Z,22.1300
2022-11-22T04:43:04.747Z,22.1500
2022-11-22T04:44:07.033Z,22.1600
2022-11-22T04:45:09.472Z,22.1700
2022-11-22T04:46:11.603Z,22.1800
2022-11-22T04:47:13.904Z,22.1700
2022-11-22T04:48:13.978Z,22.1700
2022-11-22T04:49:16.208Z,22.1800
2022-11-22T04:50:18.610Z,22.1700
2022-11-22T04:51:20.732Z,22.1400
2022-11-22T04:52:22.956Z,22.1800
2022-11-22T04:53:25.235Z,22.2000
2022-11-22T04:54:27.472Z,22.1800
2022-11-22T04:55:29.754Z,22.2100
2022-11-22T04:56:31.973Z,22.2300
2022-11-22T04:57:34.220Z,22.2300
2022-11-22T04:58:34.297Z,22.2000
2022-11-22T04:59:36.547Z,22.1700
2022-11-22T05:00:38.944Z,22.1600
2022-11-22T05:01:41.002Z,22.1200
2022-11-22T05:02:43.208Z,22.1100
2022-11-22T05:03:45.450Z,22.1400
2022-11-22T05:04:50.614Z,22.1700
2022-11-22T05:05:49.957Z,22.1700
2022-11-22T05:06:52.155Z,22.1700
2022-11-22T05:07:54.407Z,22.1500
2022-11-22T05:08:56.642Z,22.1600
2022-11-22T05:09:56.707Z,22.1800
2022-11-22T05:10:58.980Z,22.1900
2022-11-22T05:12:01.214Z,22.1800
2022-11-22T05:13:03.474Z,22.1700
2022-11-22T05:14:05.709Z,22.2100
2022-11-22T05:15:07.886Z,22.2100
2022-11-22T05:16:10.269Z,22.2100
2022-11-22T05:17:13.688Z,22.2300
2022-11-22T05:18:14.597Z,22.2300
2022-11-22T05:19:16.817Z,22.2300
2022-11-22T05:20:19.087Z,22.2000
2022-11-22T05:21:19.300Z,22.2300
2022-11-22T05:22:21.396Z,22.2300
2022-11-22T05:23:23.611Z,22.2400
2022-11-22T05:24:25.898Z,22.2300
2022-11-22T05:25:28.123Z,22.2200
2022-11-22T05:26:30.412Z,22.2300
2022-11-22T05:27:32.592Z,22.2400
2022-11-22T05:28:34.866Z,22.2400
2022-11-22T05:29:37.183Z,22.2300
2022-11-22T05:30:37.356Z,22.2200
2022-11-22T05:31:39.710Z,22.2000
2022-11-22T05:32:42.015Z,22.2100
2022-11-22T05:33:44.332Z,22.1900
2022-11-22T05:34:46.628Z,22.1700
2022-11-22T05:35:48.924Z,22.1900
2022-11-22T05:36:51.259Z,22.2000
2022-11-22T05:37:53.459Z,22.2000
2022-11-22T05:38:55.738Z,22.2200
2022-11-22T05:39:58.069Z,22.2200
2022-11-22T05:41:00.305Z,22.2300
2022-11-22T05:42:02.652Z,22.2600
2022-11-22T05:43:04.951Z,22.2600
2022-11-22T05:44:46.071Z,22.2000
2022-11-22T05:45:48.331Z,22.1800
2022-11-22T05:46:48.500Z,22.1800
2022-11-22T05:47:50.932Z,22.2100
2022-11-22T05:48:53.093Z,22.2400
2022-11-22T05:49:55.315Z,22.2300
2022-11-22T05:50:57.593Z,22.2300
2022-11-22T05:51:59.836Z,22.2000
2022-11-22T05:53:02.133Z,22.2100
2022-11-22T05:54:04.355Z,22.2400
2022-11-22T05:55:04.506Z,22.2500
2022-11-22T05:56:06.769Z,22.2700
2022-11-22T05:57:09.107Z,22.2800
2022-11-22T05:58:11.475Z,22.2800
2022-11-22T05:59:13.746Z,22.2300
2022-11-22T06:00:16.066Z,22.2400
2022-11-22T06:01:16.248Z,22.2400
2022-11-22T06:02:18.813Z,22.2500
2022-11-22T06:03:20.940Z,22.2500
2022-11-22T06:04:23.218Z,22.2600
2022-11-22T06:05:25.557Z,22.2500
2022-11-22T06:06:27.895Z,22.2700
2022-11-22T06:07:28.098Z,22.2800
2022-11-22T06:08:30.418Z,22.2800
2022-11-22T06:09:30.957Z,22.2900
2022-11-22T06:10:32.920Z,22.2500
2022-11-22T06:11:35.239Z,22.2600
2022-11-22T06:12:35.433Z,22.2700
2022-11-22T06:13:37.802Z,22.2800
2022-11-22T06:14:43.544Z,22.2800
2022-11-22T06:15:42.447Z,22.2800
2022-11-22T06:16:44.780Z,22.2900
2022-11-22T06:17:44.976Z,22.3100
2022-11-22T06:18:47.362Z,22.2900
2022-11-22T06:19:49.667Z,22.2900
2022-11-22T06:20:51.985Z,22.3100
2022-11-22T06:21:54.336Z,22.3100
2022-11-22T06:22:54.525Z,22.3100
2022-11-22T06:23:56.989Z,22.3100
2022-11-22T06:24:59.186Z,22.3200
2022-11-22T06:26:01.534Z,22.3100
2022-11-22T06:27:03.827Z,22.3100
2022-11-22T06:28:03.965Z,22.3300
2022-11-22T06:29:06.268Z,22.3300
2022-11-22T06:30:08.543Z,22.3000
2022-11-22T06:31:10.819Z,22.3200
2022-11-22T06:32:13.121Z,22.3200
2022-11-22T06:33:15.417Z,22.3200
2022-11-22T06:34:17.792Z,22.3300
2022-11-22T06:35:17.921Z,22.3100
2022-11-22T06:36:20.261Z,22.2800
2022-11-22T06:37:22.576Z,22.2800
2022-11-22T06:38:24.925Z,22.3000
2022-11-22T06:39:27.704Z,22.3100
2022-11-22T06:40:29.601Z,22.3400
2022-11-22T06:41:29.797Z,22.3500
2022-11-22T06:42:32.117Z,22.3300
2022-11-22T06:43:34.462Z,22.3400
2022-11-22T06:44:36.852Z,22.3100
2022-11-22T06:45:39.114Z,22.3200
2022-11-22T06:46:39.292Z,22.3100
2022-11-22T06:47:41.615Z,22.2900
2022-11-22T06:48:43.967Z,22.3100
2022-11-22T06:49:46.316Z,22.3100
2022-11-22T06:50:48.649Z,22.2900
2022-11-22T06:51:48.809Z,22.2900
2022-11-22T06:52:51.138Z,22.3200
2022-11-22T06:53:53.453Z,22.3100
2022-11-22T06:54:55.729Z,22.3200
2022-11-22T06:56:01.317Z,22.3400
2022-11-22T06:57:00.173Z,22.3400
2022-11-22T06:58:02.441Z,22.3300
2022-11-22T06:59:02.639Z,22.3500
2022-11-22T07:00:05.055Z,22.3600
2022-11-22T07:01:07.347Z,22.3200
2022-11-22T07:02:09.618Z,22.3300
2022-11-22T07:03:11.923Z,22.3500
2022-11-22T07:04:14.222Z,22.3400
2022-11-22T07:05:29.861Z,22.3400
2022-11-22T07:06:16.722Z,22.3000
2022-11-22T07:07:19.056Z,22.2700
2022-11-22T07:08:21.310Z,22.2700
2022-11-22T07:09:23.616Z,22.3100
2022-11-22T07:10:25.967Z,22.3400
2022-11-22T07:11:26.107Z,22.3500
2022-11-22T07:12:28.413Z,22.3500
2022-11-22T07:13:30.682Z,22.3400
2022-11-22T07:14:32.948Z,22.3200
2022-11-22T07:15:35.296Z,22.2800
2022-11-22T07:16:37.531Z,22.2800
2022-11-22T07:17:39.824Z,22.3100
2022-11-22T07:18:39.953Z,22.3200
2022-11-22T07:19:42.241Z,22.3100
2022-11-22T07:20:44.582Z,22.3500
2022-11-22T07:21:46.844Z,22.3500
2022-11-22T07:22:49.122Z,22.3400
2022-11-22T07:23:51.344Z,22.3400
2022-11-22T07:24:53.590Z,22.3000
2022-11-22T07:25:55.995Z,22.3200
2022-11-22T07:26:55.915Z,22.3300
2022-11-22T07:27:58.215Z,22.3500
2022-11-22T07:29:00.452Z,22.3400
2022-11-22T07:30:02.722Z,22.3900
2022-11-22T07:31:05.094Z,22.3500
2022-11-22T07:32:07.236Z,22.3600
2022-11-22T07:33:09.507Z,22.3700
2022-11-22T07:34:11.774Z,22.4000
2022-11-22T07:35:11.888Z,22.4200
2022-11-22T07:36:14.294Z,22.4300
2022-11-22T07:37:16.390Z,22.4100
2022-11-22T07:38:18.621Z,22.3800
2022-11-22T07:39:20.892Z,22.3600
2022-11-22T07:40:23.145Z,22.3500
2022-11-22T07:41:25.453Z,22.3600
2022-11-22T07:42:27.654Z,22.3900
2022-11-22T07:43:29.897Z,22.4100
2022-11-22T07:44:30.011Z,22.4200
2022-11-22T07:45:32.280Z,22.4200
2022-11-22T07:46:34.641Z,22.4000
2022-11-22T07:48:17.690Z,22.4300
2022-11-22T07:49:19.874Z,22.4500
2022-11-22T07:50:22.054Z,22.4500
2022-11-22T07:51:24.268Z,22.4400
2022-11-22T07:52:26.505Z,22.4100
2022-11-22T07:53:28.986Z,22.4200
2022-11-22T07:54:30.810Z,22.4300
2022-11-22T07:55:33.041Z,22.4400
2022-11-22T07:56:33.091Z,22.4300
2022-11-22T07:57:35.368Z,22.4400
2022-11-22T07:58:37.774Z,22.4400
2022-11-22T07:59:39.971Z,22.4100
2022-11-22T08:00:42.282Z,22.3500
2022-11-22T08:01:44.633Z,22.3500
2022-11-22T08:02:46.955Z,22.3600
2022-11-22T08:03:49.082Z,22.3800
2022-11-22T08:04:49.236Z,22.4200
2022-11-22T08:05:51.555Z,22.4000
2022-11-22T08:06:53.852Z,22.3800
2022-11-22T08:07:56.359Z,22.4200
2022-11-22T08:09:02.052Z,22.4300
2022-11-22T08:10:00.700Z,22.4500
2022-11-22T08:11:03.004Z,22.4900
2022-11-22T08:12:03.191Z,22.5300
2022-11-22T08:13:05.535Z,22.5200
2022-11-22T08:14:07.813Z,22.4900
2022-11-22T08:15:09.839Z,22.4700
2022-11-22T08:16:12.050Z,22.4500
2022-11-22T08:17:14.240Z,22.4900
2022-11-22T08:18:16.481Z,22.5000
2022-11-22T08:19:18.636Z,22.5200
2022-11-22T08:20:18.784Z,22.5300
2022-11-22T08:21:21.093Z,22.5200
2022-11-22T08:22:23.375Z,22.4600
2022-11-22T08:23:25.684Z,22.4600
2022-11-22T08:24:27.878Z,22.4400
2022-11-22T08:25:30.120Z,22.4600
2022-11-22T08:26:32.428Z,22.4600
2022-11-22T08:27:34.723Z,22.4300
2022-11-22T08:28:37.171Z,22.4200
2022-11-22T08:29:37.216Z,22.3900
2022-11-22T08:30:39.513Z,22.4000
2022-11-22T08:31:41.815Z,22.4300
2022-11-22T08:32:44.151Z,22.4200
2022-11-22T08:33:46.457Z,22.4100
2022-11-22T08:34:48.744Z,22.4300
2022-11-22T08:35:48.859Z,22.4100
2022-11-22T08:36:51.161Z,22.4300
2022-11-22T08:37:53.467Z,22.4100
2022-11-22T08:38:55.825Z,22.4200
2022-11-22T08:39:58.110Z,22.4500
2022-11-22T08:41:00.425Z,22.4800
2022-11-22T08:42:02.742Z,22.4500
2022-11-22T08:43:02.935Z,22.4100
2022-11-22T08:44:05.375Z,22.4200
2022-11-22T08:45:07.727Z,22.4700
2022-11-22T08:46:09.925Z,22.4900
2022-11-22T08:47:12.246Z,22.4800
2022-11-22T08:48:14.535Z,22.4600
2022-11-22T08:49:14.699Z,22.4400
2022-11-22T08:50:16.938Z,22.4900
2022-11-22T08:51:19.221Z,22.5600
2022-11-22T08:52:21.514Z,22.5900
2022-11-22T08:53:23.797Z,22.6100
2022-11-22T08:54:24.060Z,22.6000
2022-11-22T08:55:26.201Z,22.5900
2022-11-22T08:56:28.457Z,22.5100
2022-11-22T08:57:30.746Z,22.4800
2022-11-22T08:58:33.017Z,22.5000
2022-11-22T08:59:35.470Z,22.5400
2022-11-22T09:00:37.666Z,22.5400
2022-11-22T09:01:39.979Z,22.5300
2022-11-22T09:02:39.945Z,22.5200
2022-11-22T09:03:42.226Z,22.5400
2022-11-22T09:04:44.646Z,22.5300
2022-11-22T09:09:08.752Z,22.5800
2022-11-22T09:09:55.900Z,22.5300
2022-11-22T09:10:55.995Z,22.5200
2022-11-22T09:11:58.296Z,22.4500
2022-11-22T09:13:00.548Z,22.4400
2022-11-22T09:14:02.815Z,22.5000
2022-11-22T09:15:05.101Z,22.5700
2022-11-22T09:16:07.305Z,22.5600
2022-11-22T09:17:07.359Z,22.5700
2022-11-22T09:18:09.644Z,22.5600
2022-11-22T09:19:11.920Z,22.5900
2022-11-22T09:20:14.355Z,22.6100
2022-11-22T09:21:14.338Z,22.6000
2022-11-22T09:22:16.615Z,22.5900
2022-11-22T09:23:18.884Z,22.6200
2022-11-22T09:24:55.650Z,22.6000
2022-11-22T09:25:58.012Z,22.6200
2022-11-22T09:27:00.173Z,22.6300
2022-11-22T09:28:02.462Z,22.6400
2022-11-22T09:29:02.616Z,22.6500
2022-11-22T09:30:04.914Z,22.6400
2022-11-22T09:31:07.191Z,22.6300
2022-11-22T09:32:09.481Z,22.6600
2022-11-22T09:33:11.585Z,22.6600
2022-11-22T09:34:13.782Z,22.6600
2022-11-22T09:35:16.009Z,22.6600
2022-11-22T09:36:18.306Z,22.6300
2022-11-22T09:37:20.589Z,22.6000
2022-11-22T09:38:20.759Z,22.6300
2022-11-22T09:39:23.059Z,22.6400
2022-11-22T09:40:25.365Z,22.6200
2022-11-22T09:41:27.678Z,22.5800
2022-11-22T09:42:29.934Z,22.6300
2022-11-22T09:43:32.216Z,22.6500
2022-11-22T09:44:34.476Z,22.6700
2022-11-22T09:45:34.616Z,22.6500
2022-11-22T09:46:36.909Z,22.6300
2022-11-22T09:47:39.267Z,22.6400
2022-11-22T09:48:41.412Z,22.6800
2022-11-22T09:49:43.695Z,22.7000
2022-11-22T09:50:45.966Z,22.7200
2022-11-22T09:51:48.259Z,22.7100
2022-11-22T09:52:50.525Z,22.7200
2022-11-22T09:53:50.697Z,22.7200
2022-11-22T09:54:53.018Z,22.6800
2022-11-22T09:55:55.318Z,22.6700
2022-11-22T09:56:57.644Z,22.6500
2022-11-22T09:57:59.895Z,22.6600
2022-11-22T09:59:02.147Z,22.7100
2022-11-22T10:00:02.327Z,22.6800
2022-11-22T10:01:04.700Z,22.6700
2022-11-22T10:02:18.194Z,22.7000
2022-11-22T10:03:09.387Z,22.6900
2022-11-22T10:04:11.560Z,22.6800
2022-11-22T10:05:13.854Z,22.7000
2022-11-22T10:06:14.016Z,22.7000
2022-11-22T10:07:16.515Z,22.7300
2022-11-22T10:08:18.623Z,22.7400
2022-11-22T10:09:20.921Z,22.7600
2022-11-22T10:10:23.199Z,22.7600
2022-11-22T10:11:25.484Z,22.7900
2022-11-22T10:12:27.793Z,22.7900
2022-11-22T10:13:27.906Z,22.7800
2022-11-22T10:14:30.216Z,22.7700
2022-11-22T10:15:32.519Z,22.7600
2022-11-22T10:16:34.803Z,22.7500
2022-11-22T10:17:37.131Z,22.7500
2022-11-22T10:18:39.524Z,22.7600
2022-11-22T10:19:41.722Z,22.7500
2022-11-22T10:20:45.837Z,22.7600
2022-11-22T10:21:44.175Z,22.7800
2022-11-22T10:22:46.606Z,22.8000
2022-11-22T10:23:48.711Z,22.7900
2022-11-22T10:24:50.974Z,22.8000
2022-11-22T10:25:53.281Z,22.8000
2022-11-22T10:26:55.454Z,22.8100
2022-11-22T10:28:00.882Z,22.7900
2022-11-22T10:28:57.741Z,22.7600
2022-11-22T10:29:59.994Z,22.7500
2022-11-22T10:31:02.288Z,22.7600
2022-11-22T10:32:04.596Z,22.7900
2022-11-22T10:33:06.902Z,22.7900
2022-11-22T10:34:09.277Z,22.7900
2022-11-22T10:35:11.452Z,22.8000
2022-11-22T10:36:11.597Z,22.8300
2022-11-22T10:37:13.877Z,22.7900
2022-11-22T10:38:16.198Z,22.8100
2022-11-22T10:39:18.425Z,22.8100
2022-11-22T10:40:20.677Z,22.8200
2022-11-22T10:41:22.882Z,22.8300
2022-11-22T10:42:25.128Z,22.8300
2022-11-22T10:43:27.485Z,22.8500
2022-11-22T10:44:29.643Z,22.8400
2022-11-22T10:45:29.769Z,22.8400
2022-11-22T10:46:32.069Z,22.8400
2022-11-22T10:47:34.835Z,22.8300
2022-11-22T10:48:36.639Z,22.8200
2022-11-22T10:49:38.974Z,22.8000
2022-11-22T10:50:41.148Z,22.8100
2022-11-22T10:51:43.387Z,22.8200
2022-11-22T10:52:45.652Z,22.8200
2022-11-22T10:53:45.909Z,22.8000
2022-11-22T10:54:48.063Z,22.8000
2022-11-22T10:55:50.305Z,22.8200
2022-11-22T10:56:52.558Z,22.8200
2022-11-22T10:57:54.792Z,22.8100
2022-11-22T10:58:57.065Z,22.8500
2022-11-22T10:59:59.319Z,22.8500
2022-11-22T11:01:01.700Z,22.8700
2022-11-22T11:02:01.775Z,22.8800
2022-11-22T11:03:04.092Z,22.8700
2022-11-22T11:04:06.433Z,22.8900
2022-11-22T11:05:08.740Z,22.8700
2022-11-22T11:07:13.364Z,22.8900
2022-11-22T11:08:39.254Z,22.9100
2022-11-22T11:10:29.066Z,22.9100
2022-11-22T11:11:19.662Z,22.8900
2022-11-22T11:12:21.806Z,22.9100
2022-11-22T11:13:24.015Z,22.9100
2022-11-22T11:14:26.226Z,22.9200
2022-11-22T11:15:28.421Z,22.9000
2022-11-22T11:16:30.625Z,22.9300
2022-11-22T11:19:01.003Z,22.8900
2022-11-22T11:20:03.196Z,22.9200
2022-11-22T11:21:03.387Z,22.9400
2022-11-22T11:22:05.438Z,22.9500
2022-11-22T11:23:17.037Z,22.9200
2022-11-22T11:24:05.566Z,22.9100
2022-11-22T11:25:07.803Z,22.9300
2022-11-22T11:26:09.986Z,22.9400
2022-11-22T11:27:12.168Z,22.9600
2022-11-22T11:28:14.413Z,22.9600
2022-11-22T11:29:16.667Z,22.9400
2022-11-22T11:30:19.094Z,22.9600
2022-11-22T11:31:21.169Z,22.9600
2022-11-22T11:32:21.285Z,22.9600
2022-11-22T11:33:23.534Z,22.9700
2022-11-22T11:34:25.782Z,22.9700
2022-11-22T11:35:28.049Z,22.9800
2022-11-22T11:36:30.335Z,22.9800
2022-11-22T11:37:32.477Z,23.0000
2022-11-22T11:38:34.718Z,23.0100
2022-11-22T11:39:41.944Z,23.0100
2022-11-22T11:40:39.197Z,22.9900
2022-11-22T11:41:43.581Z,23.0000
2022-11-22T11:42:43.677Z,23.0000
2022-11-22T11:43:43.774Z,23.0000
2022-11-22T11:44:46.034Z,23.0100
2022-11-22T11:45:48.384Z,23.0100
2022-11-22T11:46:50.467Z,23.0100
2022-11-22T11:47:52.722Z,23.0100
2022-11-22T11:48:55.043Z,23.0100
2022-11-22T11:49:57.117Z,23.0100
2022-11-22T11:50:59.403Z,22.9900
2022-11-22T11:52:01.750Z,23.0000
2022-11-22T11:53:03.932Z,23.0000
2022-11-22T11:54:04.043Z,23.0200
2022-11-22T11:55:06.326Z,23.0200
2022-11-22T11:56:08.638Z,23.0100
2022-11-22T11:57:10.844Z,23.0300
2022-11-22T11:58:16.249Z,23.0300
2022-11-22T11:59:15.398Z,23.0200
2022-11-22T12:00:17.675Z,23.0400
2022-11-22T12:01:17.787Z,23.0600
2022-11-22T12:02:20.086Z,23.0400
2022-11-22T12:03:22.291Z,23.0500
2022-11-22T12:04:24.546Z,23.0500
2022-11-22T12:05:26.773Z,23.0600
2022-11-22T12:06:29.033Z,23.0600
2022-11-22T12:07:31.484Z,23.0600
2022-11-22T12:08:33.569Z,23.0500
2022-11-22T12:09:35.855Z,23.0500
2022-11-22T12:10:35.989Z,23.0700
2022-11-22T12:11:38.307Z,23.0600
2022-11-22T12:12:40.497Z,23.0500
2022-11-22T12:14:04.783Z,23.0300
2022-11-22T12:15:09.862Z,23.0400
2022-11-22T12:15:47.284Z,23.0600
2022-11-22T12:16:49.692Z,23.0700
2022-11-22T12:17:51.824Z,23.0700
2022-11-22T12:18:54.100Z,23.0700
2022-11-22T12:19:54.230Z,23.0600
2022-11-22T12:20:56.534Z,23.0800
2022-11-22T12:21:58.819Z,23.0800
2022-11-22T12:23:01.180Z,23.0800
2022-11-22T12:24:34.337Z,23.0600
2022-11-22T12:25:30.866Z,23.0700
2022-11-22T12:26:05.683Z,23.0700
2022-11-22T12:27:10.117Z,23.1000
2022-11-22T12:28:10.135Z,23.1300
2022-11-22T12:29:12.373Z,23.1200
2022-11-22T12:30:14.642Z,23.1300
2022-11-22T12:31:16.887Z,23.1400
2022-11-22T12:32:19.293Z,23.1300
2022-11-22T12:33:21.379Z,23.1000
2022-11-22T12:35:32.415Z,23.1000
2022-11-22T12:36:34.604Z,23.0800
2022-11-22T12:37:36.884Z,23.1000
2022-11-22T12:38:39.225Z,23.1200
2022-11-22T12:39:41.344Z,23.1100
2022-11-22T12:40:43.563Z,23.0500
2022-11-22T12:41:45.831Z,23.0700
2022-11-22T12:42:48.202Z,23.1000
2022-11-22T12:43:48.158Z,23.1100